Time;durP1;ratioP1;P1;durP2;ratioP2;P2;SDS_P1;SDS_P2;PMS_P1;PMS_P2;Temp;Humidity;BMP_temperature;BMP_pressure;BME280_temperature;BME280_humidity;BME280_pressure;Samples;Min_cycle;Max_cycle;Signal;HPM_P1;HPM_P2
2023/01/31 00:00:30;;;;;;;;;;;9.40;99.90;;;;;;5071874;28;19944;-77
2023/01/31 00:02:57;;;;;;;;;;;9.40;99.90;;;;;;5071658;28;20314;-78
2023/01/31 00:05:23;;;;;;;;;;;9.40;99.90;;;;;;5071380;28;19953;-75
2023/01/31 00:07:49;;;;;;;;;;;9.40;99.90;;;;;;5075340;28;19935;-77
2023/01/31 00:10:15;;;;;;;;;;;9.30;99.90;;;;;;5074963;28;19912;-77
2023/01/31 00:12:41;;;;;;;;;;;9.30;99.90;;;;;;5075373;28;19915;-76
2023/01/31 00:15:07;;;;;;;;;;;9.50;99.90;;;;;;5074731;28;20307;-76
2023/01/31 00:17:33;;;;;;;;;;;9.50;99.90;;;;;;5074775;28;20003;-77
2023/01/31 00:19:59;;;;;;;;;;;9.50;99.90;;;;;;5056616;28;19959;-77
2023/01/31 00:22:24;;;;;;;;;;;9.50;99.90;;;;;;5075134;28;20271;-77
2023/01/31 00:24:50;;;;;;;;;;;9.50;99.90;;;;;;5074712;28;20050;-77
2023/01/31 00:27:17;;;;;;;;;;;9.40;99.90;;;;;;5074602;28;20012;-77
2023/01/31 00:29:44;;;;;;;;;;;9.30;99.90;;;;;;5074596;28;20024;-77
2023/01/31 00:32:09;;;;;;;;;;;9.30;99.90;;;;;;5074646;28;19954;-77
2023/01/31 00:34:35;;;;;;;;;;;9.20;99.90;;;;;;5074437;28;19916;-77
2023/01/31 00:37:01;;;;;;;;;;;9.30;99.90;;;;;;5060436;28;19913;-76
2023/01/31 00:39:27;;;;;;;;;;;9.30;99.90;;;;;;5054330;28;19916;-77
2023/01/31 00:41:53;;;;;;;;;;;9.30;99.90;;;;;;5036167;28;19921;-78
2023/01/31 00:44:18;;;;;;;;;;;9.30;99.90;;;;;;5040381;28;19912;-77
2023/01/31 00:46:45;;;;;;;;;;;9.40;99.90;;;;;;5074268;28;20065;-77
2023/01/31 00:49:10;;;;;;;;;;;9.40;99.90;;;;;;5074639;28;20019;-77
2023/01/31 00:51:38;;;;;;;;;;;9.40;99.90;;;;;;5073992;28;19915;-78
2023/01/31 00:54:04;;;;;;;;;;;9.40;99.90;;;;;;5074095;28;20303;-77
2023/01/31 00:56:30;;;;;;;;;;;9.40;99.90;;;;;;5074224;28;20360;-77
2023/01/31 00:58:56;;;;;;;;;;;9.40;99.90;;;;;;5074066;28;19962;-77
2023/01/31 01:01:23;;;;;;;;;;;9.40;99.90;;;;;;5055997;28;20312;-75
2023/01/31 01:03:49;;;;;;;;;;;9.30;99.90;;;;;;5074399;28;19917;-77
2023/01/31 01:06:16;;;;;;;;;;;9.30;99.90;;;;;;5073737;28;20265;-77
2023/01/31 01:08:42;;;;;;;;;;;9.30;99.90;;;;;;5074149;28;19917;-72
2023/01/31 01:11:18;;;;;;;;;;;9.20;99.90;;;;;;5059214;28;19913;-77
2023/01/31 01:13:44;;;;;;;;;;;9.20;99.90;;;;;;5053972;28;20410;-77
2023/01/31 01:16:11;;;;;;;;;;;9.40;99.90;;;;;;5073088;28;19912;-77
2023/01/31 01:18:37;;;;;;;;;;;9.40;99.90;;;;;;5072508;28;19962;-77
2023/01/31 01:21:10;;;;;;;;;;;9.40;99.90;;;;;;5073424;28;19951;-77
2023/01/31 01:23:40;;;;;;;;;;;9.40;99.90;;;;;;5073664;28;20277;-77
2023/01/31 01:26:11;;;;;;;;;;;9.50;99.90;;;;;;5074048;28;19950;-77
2023/01/31 01:28:37;;;;;;;;;;;9.50;99.90;;;;;;5073567;28;20006;-77
2023/01/31 01:31:07;;;;;;;;;;;9.50;99.90;;;;;;5073510;28;20023;-77
2023/01/31 01:33:33;;;;;;;;;;;9.50;99.90;;;;;;5073486;28;19971;-77
2023/01/31 01:36:00;;;;;;;;;;;9.60;99.90;;;;;;5073166;28;19916;-74
2023/01/31 01:38:27;;;;;;;;;;;9.50;99.90;;;;;;5058890;28;19928;-77
2023/01/31 01:40:52;;;;;;;;;;;9.60;99.90;;;;;;5053185;28;19997;-77
2023/01/31 01:43:19;;;;;;;;;;;9.60;99.90;;;;;;5052978;28;19959;-77
2023/01/31 01:45:45;;;;;;;;;;;9.60;99.90;;;;;;5069004;28;19909;-78
2023/01/31 01:48:13;;;;;;;;;;;9.60;99.90;;;;;;5073051;28;19932;-78
2023/01/31 01:50:41;;;;;;;;;;;9.60;99.90;;;;;;5073366;28;19912;-77
2023/01/31 01:53:27;;;;;;;;;;;9.60;99.90;;;;;;5072944;28;20336;-78
2023/01/31 01:55:54;;;;;;;;;;;9.50;99.90;;;;;;5071620;28;19916;-77
2023/01/31 01:58:20;;;;;;;;;;;9.50;99.90;;;;;;5072822;28;19984;-77
2023/01/31 02:00:46;;;;;;;;;;;9.50;99.90;;;;;;5073268;28;19912;-78
2023/01/31 02:03:14;;;;;;;;;;;9.50;99.90;;;;;;5072755;28;19909;-77
2023/01/31 02:05:43;;;;;;;;;;;9.60;99.90;;;;;;5072698;28;19909;-76
2023/01/31 02:08:11;;;;;;;;;;;9.50;99.90;;;;;;5072679;28;19916;-76
2023/01/31 02:10:41;;;;;;;;;;;9.50;99.90;;;;;;5072637;28;19912;-78
2023/01/31 02:13:07;;;;;;;;;;;9.50;99.90;;;;;;5072679;28;19915;-78
2023/01/31 02:15:33;;;;;;;;;;;9.50;99.90;;;;;;5054271;28;19952;-78
2023/01/31 02:17:59;;;;;;;;;;;9.50;99.90;;;;;;5072898;28;20301;-78
2023/01/31 02:20:31;;;;;;;;;;;9.40;99.90;;;;;;5072286;28;19909;-77
2023/01/31 02:22:57;;;;;;;;;;;9.40;99.90;;;;;;5072842;28;19999;-77
2023/01/31 02:25:38;;;;;;;;;;;9.40;99.90;;;;;;5072683;28;19963;-77
2023/01/31 02:28:10;;;;;;;;;;;9.40;99.90;;;;;;5072702;28;20264;-78
2023/01/31 02:30:57;;;;;;;;;;;9.40;99.90;;;;;;5072028;28;19913;-77
2023/01/31 02:33:29;;;;;;;;;;;9.40;99.90;;;;;;5071384;28;19916;-76
2023/01/31 02:36:05;;;;;;;;;;;9.30;99.90;;;;;;5072230;28;19915;-76
2023/01/31 02:38:30;;;;;;;;;;;9.30;99.90;;;;;;5072656;28;19908;-77
2023/01/31 02:40:59;;;;;;;;;;;9.30;99.90;;;;;;5072077;28;19915;-78
2023/01/31 02:43:32;;;;;;;;;;;9.30;99.90;;;;;;5071856;28;19921;-77
2023/01/31 02:46:00;;;;;;;;;;;9.30;99.90;;;;;;5072032;28;19916;-77
2023/01/31 02:48:52;;;;;;;;;;;9.30;99.90;;;;;;5071891;28;20287;-77
2023/01/31 02:51:24;;;;;;;;;;;9.30;99.90;;;;;;5067942;28;20385;-77
2023/01/31 02:53:54;;;;;;;;;;;9.30;99.90;;;;;;5072309;28;19985;-77
2023/01/31 02:56:31;;;;;;;;;;;9.30;99.90;;;;;;5072100;28;19976;-77
2023/01/31 02:58:59;;;;;;;;;;;9.30;99.90;;;;;;5072427;28;19908;-77
2023/01/31 03:01:31;;;;;;;;;;;9.30;99.90;;;;;;5071893;28;19915;-77
2023/01/31 03:03:58;;;;;;;;;;;9.20;99.90;;;;;;5071783;28;19991;-77
2023/01/31 03:06:24;;;;;;;;;;;9.20;99.90;;;;;;5071637;28;19908;-77
2023/01/31 03:08:57;;;;;;;;;;;9.20;99.90;;;;;;5071851;28;19923;-76
2023/01/31 03:11:28;;;;;;;;;;;9.20;99.90;;;;;;5072320;28;19914;-78
2023/01/31 03:14:02;;;;;;;;;;;9.20;99.90;;;;;;5071658;28;19919;-77
2023/01/31 03:19:18;;;;;;;;;;;9.20;99.90;;;;;;5071479;28;19915;-77
2023/01/31 03:22:04;;;;;;;;;;;9.20;99.90;;;;;;5070909;28;19908;-77
2023/01/31 03:24:30;;;;;;;;;;;9.20;99.90;;;;;;5030738;28;19913;-78
2023/01/31 03:27:05;;;;;;;;;;;9.10;99.90;;;;;;5030919;28;19956;-78
2023/01/31 03:29:33;;;;;;;;;;;9.10;99.90;;;;;;5031532;28;20272;-78
2023/01/31 03:32:04;;;;;;;;;;;9.10;99.90;;;;;;5029818;28;19909;-77
2023/01/31 03:34:31;;;;;;;;;;;9.10;99.90;;;;;;5029909;28;19922;-77
2023/01/31 03:36:56;;;;;;;;;;;9.10;99.90;;;;;;5031294;28;19920;-77
2023/01/31 03:39:37;;;;;;;;;;;9.10;99.90;;;;;;5029652;28;19909;-78
2023/01/31 03:42:06;;;;;;;;;;;9.20;99.90;;;;;;5033659;28;19960;-78
2023/01/31 03:44:51;;;;;;;;;;;9.20;99.90;;;;;;5047019;28;19946;-77
2023/01/31 03:47:21;;;;;;;;;;;9.30;99.90;;;;;;5075231;28;19909;-77
2023/01/31 03:49:48;;;;;;;;;;;9.30;99.90;;;;;;5074895;28;19961;-78
2023/01/31 03:52:15;;;;;;;;;;;9.30;99.90;;;;;;5074572;28;19927;-78
2023/01/31 03:54:45;;;;;;;;;;;9.40;99.90;;;;;;5056570;28;19909;-74
2023/01/31 03:57:21;;;;;;;;;;;9.40;99.90;;;;;;5074890;28;19947;-77
2023/01/31 03:59:52;;;;;;;;;;;9.40;99.90;;;;;;5074958;28;19952;-78
2023/01/31 04:02:20;;;;;;;;;;;9.50;99.90;;;;;;5075037;28;20378;-77
2023/01/31 04:05:09;;;;;;;;;;;9.50;99.90;;;;;;5075011;28;19924;-77
2023/01/31 04:07:35;;;;;;;;;;;9.50;99.90;;;;;;5064088;28;19916;-77
2023/01/31 04:10:01;;;;;;;;;;;9.50;99.90;;;;;;5074926;28;20004;-77
2023/01/31 04:12:27;;;;;;;;;;;9.50;99.90;;;;;;5056767;28;19986;-77
2023/01/31 04:14:53;;;;;;;;;;;9.50;99.90;;;;;;5074631;28;19947;-78
2023/01/31 04:17:19;;;;;;;;;;;9.50;99.90;;;;;;5075117;28;19990;-77
2023/01/31 04:19:44;;;;;;;;;;;9.50;99.90;;;;;;5074589;28;19908;-78
2023/01/31 04:22:10;;;;;;;;;;;9.50;99.90;;;;;;5074503;28;20109;-77
2023/01/31 04:24:36;;;;;;;;;;;9.50;99.90;;;;;;5075199;28;19909;-77
2023/01/31 04:27:02;;;;;;;;;;;9.60;99.90;;;;;;5056862;28;19908;-77
2023/01/31 04:29:27;;;;;;;;;;;9.60;99.90;;;;;;5074894;28;20011;-77
2023/01/31 04:31:53;;;;;;;;;;;9.70;99.90;;;;;;5074927;28;19909;-77
2023/01/31 04:34:19;;;;;;;;;;;9.70;99.90;;;;;;5056783;28;20380;-77
2023/01/31 04:36:45;;;;;;;;;;;9.70;99.90;;;;;;5074718;28;19914;-77
2023/01/31 04:39:12;;;;;;;;;;;9.70;99.90;;;;;;5075166;28;19948;-77
2023/01/31 04:41:38;;;;;;;;;;;9.70;99.90;;;;;;5074443;28;19924;-77
2023/01/31 04:44:04;;;;;;;;;;;9.70;99.90;;;;;;5072860;28;20272;-77
2023/01/31 04:46:30;;;;;;;;;;;9.70;99.90;;;;;;5055227;28;19956;-77
2023/01/31 04:48:56;;;;;;;;;;;9.70;99.90;;;;;;5054640;28;19916;-77
2023/01/31 04:51:22;;;;;;;;;;;9.70;99.90;;;;;;5036344;28;19916;-77
2023/01/31 04:53:48;;;;;;;;;;;9.70;99.90;;;;;;5054775;28;20012;-77
2023/01/31 04:56:14;;;;;;;;;;;9.80;99.90;;;;;;5054487;28;19909;-77
2023/01/31 04:58:40;;;;;;;;;;;9.80;99.90;;;;;;5054297;28;19912;-76
2023/01/31 05:01:06;;;;;;;;;;;9.70;99.90;;;;;;5054422;28;19920;-77
2023/01/31 05:03:32;;;;;;;;;;;9.70;99.90;;;;;;5054235;28;19909;-77
2023/01/31 05:05:58;;;;;;;;;;;9.70;99.90;;;;;;5054253;28;20387;-77
2023/01/31 05:08:24;;;;;;;;;;;9.60;99.90;;;;;;5053628;28;19913;-78
2023/01/31 05:10:55;;;;;;;;;;;9.60;99.90;;;;;;5052674;28;19917;-76
2023/01/31 05:13:23;;;;;;;;;;;9.60;99.90;;;;;;5053132;28;19909;-76
2023/01/31 05:15:48;;;;;;;;;;;9.50;99.90;;;;;;5069402;28;19913;-78
2023/01/31 05:18:14;;;;;;;;;;;9.50;99.90;;;;;;5073354;28;19909;-76
2023/01/31 05:20:41;;;;;;;;;;;9.60;99.90;;;;;;5055073;28;19989;-76
2023/01/31 05:23:07;;;;;;;;;;;9.60;99.90;;;;;;5051233;28;20430;-77
2023/01/31 05:25:34;;;;;;;;;;;9.60;99.90;;;;;;5054639;28;19913;-77
2023/01/31 05:28:00;;;;;;;;;;;9.60;99.90;;;;;;5054106;28;19912;-75
2023/01/31 05:30:26;;;;;;;;;;;9.60;99.90;;;;;;5054598;28;20008;-76
2023/01/31 05:32:52;;;;;;;;;;;9.60;99.90;;;;;;5054752;28;19952;-76
2023/01/31 05:35:18;;;;;;;;;;;9.60;99.90;;;;;;5054593;28;19996;-76
2023/01/31 05:37:44;;;;;;;;;;;9.50;99.90;;;;;;5054128;28;19909;-77
2023/01/31 05:40:11;;;;;;;;;;;9.60;99.90;;;;;;5054437;28;19974;-76
2023/01/31 05:42:37;;;;;;;;;;;9.60;99.90;;;;;;5058639;28;19921;-76
2023/01/31 05:45:03;;;;;;;;;;;9.60;99.90;;;;;;5067026;28;19923;-77
2023/01/31 05:47:29;;;;;;;;;;;9.60;99.90;;;;;;5074369;28;19908;-77
2023/01/31 05:49:55;;;;;;;;;;;9.60;99.90;;;;;;5072936;28;19916;-77
2023/01/31 05:52:20;;;;;;;;;;;9.60;99.90;;;;;;5073538;28;20336;-77
2023/01/31 05:54:46;;;;;;;;;;;9.60;99.90;;;;;;5055878;28;19919;-77
2023/01/31 05:57:14;;;;;;;;;;;9.50;99.90;;;;;;5074136;28;19908;-76
2023/01/31 05:59:39;;;;;;;;;;;9.60;99.90;;;;;;5073666;28;19924;-76
2023/01/31 06:02:05;;;;;;;;;;;9.50;99.90;;;;;;5060753;28;19967;-75
2023/01/31 06:04:31;;;;;;;;;;;9.50;99.90;;;;;;5052676;28;20325;-77
2023/01/31 06:06:57;;;;;;;;;;;9.40;99.90;;;;;;5051771;28;19909;-74
2023/01/31 06:09:23;;;;;;;;;;;9.40;99.90;;;;;;5053207;28;19916;-77
2023/01/31 06:11:49;;;;;;;;;;;9.40;99.90;;;;;;5053945;28;20363;-78
2023/01/31 06:14:15;;;;;;;;;;;9.40;99.90;;;;;;5056744;28;20007;-76
2023/01/31 06:16:40;;;;;;;;;;;9.40;99.90;;;;;;5073372;28;19959;-78
2023/01/31 06:19:06;;;;;;;;;;;9.40;99.90;;;;;;5056264;28;19909;-78
2023/01/31 06:21:32;;;;;;;;;;;9.50;99.90;;;;;;5073796;28;20224;-79
2023/01/31 06:23:58;;;;;;;;;;;9.60;99.90;;;;;;5055772;28;19916;-79
2023/01/31 06:26:24;;;;;;;;;;;9.60;99.90;;;;;;5071476;28;20018;-79
2023/01/31 06:28:49;;;;;;;;;;;9.60;99.90;;;;;;5051696;28;20016;-74
2023/01/31 06:31:15;;;;;;;;;;;9.80;99.90;;;;;;5052963;28;19913;-78
2023/01/31 06:33:41;;;;;;;;;;;10.00;99.90;;;;;;5052844;28;20395;-77
2023/01/31 06:36:08;;;;;;;;;;;10.30;99.90;;;;;;5053158;28;19909;-78
2023/01/31 06:38:34;;;;;;;;;;;10.70;99.90;;;;;;5053138;28;19960;-78
2023/01/31 06:41:00;;;;;;;;;;;10.80;99.90;;;;;;5053240;28;19956;-78
2023/01/31 06:43:26;;;;;;;;;;;11.10;99.90;;;;;;5052606;28;20245;-78
2023/01/31 06:45:52;;;;;;;;;;;11.60;99.90;;;;;;5069581;28;19917;-78
2023/01/31 06:48:19;;;;;;;;;;;12.00;99.90;;;;;;5053995;28;19966;-79
2023/01/31 06:50:45;;;;;;;;;;;12.30;99.90;;;;;;5071887;28;19934;-78
2023/01/31 06:53:11;;;;;;;;;;;12.30;99.90;;;;;;5072086;28;19962;-79
2023/01/31 06:55:37;;;;;;;;;;;12.20;99.90;;;;;;5071913;28;19909;-78
2023/01/31 06:58:03;;;;;;;;;;;11.90;99.90;;;;;;5071774;28;19958;-78
2023/01/31 07:00:29;;;;;;;;;;;11.90;99.90;;;;;;5071701;28;19909;-78
2023/01/31 07:02:55;;;;;;;;;;;11.60;99.90;;;;;;5053709;28;19909;-78
2023/01/31 07:05:21;;;;;;;;;;;11.70;99.90;;;;;;5071807;28;19915;-79
2023/01/31 07:07:48;;;;;;;;;;;11.70;99.90;;;;;;5054200;28;20003;-78
2023/01/31 07:10:15;;;;;;;;;;;11.70;99.90;;;;;;5072028;28;20333;-79
2023/01/31 07:12:41;;;;;;;;;;;11.80;99.90;;;;;;5071815;28;19923;-78
2023/01/31 07:15:07;;;;;;;;;;;11.90;99.90;;;;;;5070221;28;20360;-79
2023/01/31 07:17:33;;;;;;;;;;;12.10;99.90;;;;;;5075605;28;19912;-79
2023/01/31 07:20:00;;;;;;;;;;;12.10;99.90;;;;;;5058205;28;20075;-79
2023/01/31 07:22:26;;;;;;;;;;;12.20;99.90;;;;;;5076470;28;19995;-77
2023/01/31 07:24:52;;;;;;;;;;;13.20;99.90;;;;;;5076914;28;19908;-79
2023/01/31 07:27:17;;;;;;;;;;;14.30;99.90;;;;;;5076461;28;19976;-79
2023/01/31 07:29:43;;;;;;;;;;;15.70;99.90;;;;;;5076653;28;20355;-79
2023/01/31 07:32:09;;;;;;;;;;;16.80;99.90;;;;;;5076041;28;19909;-79
2023/01/31 07:34:35;;;;;;;;;;;17.70;99.90;;;;;;5076764;28;19908;-80
2023/01/31 07:37:01;;;;;;;;;;;18.80;99.90;;;;;;5076412;28;19963;-79
2023/01/31 07:39:27;;;;;;;;;;;19.80;99.90;;;;;;5076539;28;19995;-79
2023/01/31 07:41:53;;;;;;;;;;;20.00;99.90;;;;;;5075807;28;19952;-80
2023/01/31 07:44:18;;;;;;;;;;;20.50;99.90;;;;;;5075520;28;19946;-80
2023/01/31 07:46:44;;;;;;;;;;;21.20;99.90;;;;;;5076358;28;20341;-80
2023/01/31 07:49:10;;;;;;;;;;;21.10;99.90;;;;;;5075845;28;19935;-78
2023/01/31 07:51:37;;;;;;;;;;;20.20;99.90;;;;;;5057742;28;19944;-79
2023/01/31 07:54:04;;;;;;;;;;;18.80;99.90;;;;;;5075725;28;19909;-79
2023/01/31 07:56:30;;;;;;;;;;;18.00;99.90;;;;;;5075900;28;19912;-76
2023/01/31 07:58:57;;;;;;;;;;;17.20;99.90;;;;;;5076233;28;20013;-78
2023/01/31 08:04:09;;;;;;;;;;;15.00;99.90;;;;;;5075951;28;19916;-74
2023/01/31 08:06:35;;;;;;;;;;;14.50;99.90;;;;;;5057240;28;20456;-78
2023/01/31 08:09:01;;;;;;;;;;;14.30;99.90;;;;;;5057408;28;19917;-75
2023/01/31 08:11:27;;;;;;;;;;;14.20;99.90;;;;;;5075686;28;19915;-78
2023/01/31 08:13:53;;;;;;;;;;;13.90;99.90;;;;;;5075321;28;19968;-78
2023/01/31 08:16:20;;;;;;;;;;;13.40;99.90;;;;;;5074068;28;19954;-78
2023/01/31 08:18:46;;;;;;;;;;;13.30;99.90;;;;;;5055534;28;19916;-77
2023/01/31 08:21:14;;;;;;;;;;;13.40;99.90;;;;;;5055159;28;20083;-78
2023/01/31 08:23:41;;;;;;;;;;;13.50;99.90;;;;;;5055360;28;19916;-76
2023/01/31 08:26:12;;;;;;;;;;;13.50;99.90;;;;;;5055219;28;19916;-77
2023/01/31 08:56:42;;;;;;;10.00;2.53;;;13.80;99.90;;;;;;5129683;27;20507;-78
2023/01/31 08:59:10;;;;;;;10.07;2.90;;;14.70;99.90;;;;;;5145297;27;20036;-77
2023/01/31 09:01:37;;;;;;;11.30;2.60;;;15.00;99.90;;;;;;5129219;28;20106;-79
2023/01/31 09:04:04;;;;;;;9.60;2.50;;;15.20;99.90;;;;;;5129154;28;20043;-81
2023/01/31 09:06:30;;;;;;;9.63;2.92;;;15.20;99.90;;;;;;5110993;28;20031;-79
2023/01/31 09:08:57;;;;;;;7.10;2.25;;;15.10;99.90;;;;;;5127877;28;20076;-78
2023/01/31 09:11:27;;;;;;;5.20;1.75;;;15.20;99.90;;;;;;5109278;28;20028;-78
2023/01/31 09:13:53;;;;;;;6.45;1.70;;;15.30;99.90;;;;;;5090705;28;20028;-77
2023/01/31 09:16:20;;;;;;;7.83;2.03;;;15.40;99.90;;;;;;5097697;28;20024;-78
2023/01/31 09:18:46;;;;;;;7.07;1.70;;;15.40;99.90;;;;;;5089476;28;20044;-79
2023/01/31 09:21:17;;;;;;;10.50;2.05;;;15.00;99.90;;;;;;5089719;28;20028;-79
2023/01/31 09:23:44;;;;;;;9.60;1.80;;;14.60;99.90;;;;;;5089245;28;20033;-78
2023/01/31 09:26:11;;;;;;;10.50;1.88;;;14.50;99.90;;;;;;5088796;28;20040;-77
2023/01/31 09:28:38;;;;;;;7.47;1.75;;;14.70;99.90;;;;;;5089210;28;20031;-80
2023/01/31 09:31:14;;;;;;;15.85;1.73;;;14.90;99.90;;;;;;5088937;28;20060;-80
2023/01/31 09:33:41;;;;;;;5.72;1.50;;;15.00;99.90;;;;;;5091220;28;20123;-78
2023/01/31 09:36:10;;;;;;;5.45;1.52;;;15.20;99.90;;;;;;5089779;28;20346;-79
2023/01/31 09:38:37;;;;;;;11.80;1.77;;;15.10;99.90;;;;;;5089430;28;20028;-78
2023/01/31 09:41:24;;;;;;;6.93;1.63;;;14.80;99.90;;;;;;5070774;28;20024;-78
2023/01/31 09:43:53;;;;;;;;;;;14.60;99.90;;;;;;5089520;28;20066;-77
2023/01/31 09:46:23;;;;;;;9.15;1.88;;;14.80;99.90;;;;;;5088600;28;19912;-78
2023/01/31 09:48:54;;;;;;;6.72;1.60;;;15.00;99.90;;;;;;5088550;28;20024;-78
2023/01/31 09:51:21;;;;;;;6.25;1.92;;;15.00;99.90;;;;;;5070205;28;20111;-77
2023/01/31 09:53:47;;;;;;;7.25;1.80;;;15.00;99.90;;;;;;5105665;28;20052;-78
2023/01/31 09:56:22;;;;;;;8.50;1.95;;;15.30;99.90;;;;;;5103087;28;20040;-76
2023/01/31 09:59:17;;;;;;;5.88;2.10;;;15.40;99.90;;;;;;5095398;28;20020;-77
2023/01/31 10:01:59;;;;;;;6.53;1.85;;;15.50;99.90;;;;;;5095188;28;20379;-78
2023/01/31 10:04:52;;;;;;;8.80;1.63;;;15.40;99.90;;;;;;5094884;28;20117;-77
2023/01/31 10:08:03;;;;;;;6.72;1.83;;;15.40;99.90;;;;;;5076452;28;20107;-77
2023/01/31 10:10:50;;;;;;;11.85;2.13;;;15.60;99.90;;;;;;5056645;28;20120;-78
2023/01/31 10:13:24;;;;;;;6.70;2.00;;;15.60;99.90;;;;;;5056113;28;20027;-78
2023/01/31 10:15:56;;;;;;;8.10;2.00;;;15.70;99.90;;;;;;5062884;28;20490;-77
2023/01/31 10:18:27;;;;;;;11.35;2.10;;;15.60;99.90;;;;;;5094628;28;20028;-75
2023/01/31 10:21:29;;;;;;;9.60;1.95;;;15.60;99.90;;;;;;5076365;28;20118;-74
2023/01/31 10:24:05;;;;;;;7.55;2.30;;;15.70;99.90;;;;;;5050699;28;20028;-71
2023/01/31 10:26:35;;;;;;;10.93;2.00;;;15.80;99.90;;;;;;5074702;28;20074;-77
2023/01/31 10:29:27;;;;;;;6.95;2.08;;;15.90;99.90;;;;;;5074195;28;20080;-78
2023/01/31 10:32:03;;;;;;;4.95;1.60;;;15.90;99.90;;;;;;5073521;28;20024;-78
2023/01/31 10:34:47;;;;;;;10.57;2.67;;;15.80;99.90;;;;;;5074008;28;20048;-75
2023/01/31 10:37:18;;;;;;;5.60;1.83;;;16.00;99.90;;;;;;5073923;28;20107;-79
2023/01/31 10:39:56;;;;;;;10.90;2.40;;;16.30;99.90;;;;;;5074117;28;20035;-78
2023/01/31 10:42:31;;;;;;;9.98;2.03;;;16.10;99.90;;;;;;5074301;28;20024;-78
2023/01/31 10:45:00;;;;;;;6.82;1.75;;;16.20;99.90;;;;;;5074187;28;20121;-78
2023/01/31 10:47:34;;;;;;;9.07;1.92;;;16.50;99.90;;;;;;5073169;28;20028;-79
2023/01/31 10:50:12;;;;;;;8.32;2.25;;;16.50;99.90;;;;;;5074018;28;20104;-78
2023/01/31 10:52:56;;;;;;;7.75;1.90;;;16.00;99.90;;;;;;5073719;28;20064;-77
2023/01/31 10:55:22;;;;;;;10.48;2.10;;;16.20;99.90;;;;;;5073516;28;20396;-78
2023/01/31 10:57:49;;;;;;;5.03;1.60;;;15.90;99.90;;;;;;5073581;28;20454;-77
2023/01/31 11:00:22;;;;;;;9.13;2.00;;;16.20;99.90;;;;;;5073659;28;20150;-78
2023/01/31 11:02:48;;;;;;;8.40;1.63;;;16.50;99.90;;;;;;5073628;28;20031;-78
2023/01/31 11:05:19;;;;;;;6.93;1.60;;;16.70;99.90;;;;;;5073382;28;20387;-77
2023/01/31 11:07:46;;;;;;;5.90;1.80;;;16.40;99.90;;;;;;5054899;28;20029;-77
2023/01/31 11:10:25;;;;;;;9.90;1.80;;;16.30;99.90;;;;;;5073798;28;20489;-78
2023/01/31 11:13:06;;;;;;;7.80;1.55;;;15.80;99.90;;;;;;5055182;28;20468;-78
2023/01/31 11:15:41;;;;;;;10.05;1.80;;;15.90;99.90;;;;;;5077879;28;20547;-78
2023/01/31 11:18:24;;;;;;;5.75;1.48;;;16.00;99.90;;;;;;5093555;28;20020;-78
2023/01/31 11:20:57;;;;;;;6.70;1.50;;;15.50;99.90;;;;;;5093594;28;20156;-76
2023/01/31 11:23:28;;;;;;;9.52;1.63;;;15.00;99.90;;;;;;5093460;28;20020;-77
2023/01/31 11:25:55;;;;;;;5.60;1.70;;;15.10;99.90;;;;;;5093746;28;20043;-78
2023/01/31 11:28:24;;;;;;;6.80;1.67;;;15.10;99.90;;;;;;5093332;28;20364;-78
2023/01/31 11:30:53;;;;;;;10.73;1.80;;;15.10;99.90;;;;;;5092954;28;20499;-78
2023/01/31 11:33:39;;;;;;;10.18;1.50;;;15.00;99.90;;;;;;5093711;28;20047;-78
2023/01/31 11:36:12;;;;;;;9.63;2.03;;;14.40;99.90;;;;;;5093344;28;20416;-76
2023/01/31 11:38:39;;;;;;;8.55;1.80;;;14.10;99.90;;;;;;5093598;28;20065;-78
2023/01/31 11:41:40;;;;;;;5.35;1.80;;;13.70;99.90;;;;;;5093699;28;20032;-78
2023/01/31 11:44:14;;;;;;;5.63;1.88;;;13.60;99.90;;;;;;4991642;28;20478;-78
2023/01/31 11:46:54;;;;;;;3.22;1.40;;;13.60;99.90;;;;;;4975064;28;20072;-77
2023/01/31 11:49:36;;;;;;;7.28;1.38;;;13.60;99.90;;;;;;4990964;28;20407;-78
2023/01/31 11:52:17;;;;;;;6.43;1.50;;;13.60;99.90;;;;;;4991211;28;20089;-77
2023/01/31 11:54:47;;;;;;;4.40;1.85;;;13.60;99.90;;;;;;4991763;28;20060;-78
2023/01/31 11:57:16;;;;;;;4.20;1.40;;;13.70;99.90;;;;;;4991083;28;20521;-78
2023/01/31 11:59:42;;;;;;;6.32;1.80;;;13.70;99.90;;;;;;4991544;28;20050;-78
2023/01/31 12:02:44;;;;;;;4.97;1.55;;;14.00;99.90;;;;;;5024959;28;20033;-78
2023/01/31 12:05:16;;;;;;;8.27;1.60;;;14.40;99.90;;;;;;4990124;28;20086;-77
2023/01/31 12:07:52;;;;;;;3.40;1.40;;;14.70;99.90;;;;;;4991101;28;20113;-78
2023/01/31 12:10:24;;;;;;;9.43;2.05;;;14.80;99.90;;;;;;4997464;28;20113;-77
2023/01/31 12:12:51;;;;;;;7.60;1.60;;;14.60;99.90;;;;;;5010527;28;20069;-75
2023/01/31 12:15:18;;;;;;;5.03;1.38;;;14.50;99.90;;;;;;4980013;28;20030;-79
2023/01/31 12:17:48;;;;;;;5.50;1.38;;;14.70;99.90;;;;;;5027155;28;20127;-78
2023/01/31 12:20:32;;;;;;;6.97;1.77;;;14.90;99.90;;;;;;5092893;28;20090;-78
2023/01/31 12:23:02;;;;;;;7.82;1.65;;;15.10;99.90;;;;;;5074614;28;20028;-77
2023/01/31 12:25:51;;;;;;;9.73;1.50;;;15.50;99.90;;;;;;5072398;28;20038;-78
2023/01/31 12:28:32;;;;;;;5.22;1.50;;;15.50;99.90;;;;;;5077452;28;20034;-78
2023/01/31 12:31:32;;;;;;;4.85;1.60;;;15.10;99.90;;;;;;5010241;28;20050;-78
2023/01/31 12:34:24;;;;;;;5.78;1.30;;;15.10;99.90;;;;;;5001680;28;20458;-78
2023/01/31 12:37:09;;;;;;;6.43;2.05;;;15.10;99.90;;;;;;4990989;28;20018;-77
2023/01/31 12:39:44;;;;;;;5.22;1.95;;;15.10;99.90;;;;;;4990778;28;20422;-77
2023/01/31 12:42:38;;;;;;;6.73;2.13;;;15.10;99.90;;;;;;4990761;28;20022;-76
2023/01/31 12:45:43;;;;;;;6.22;1.70;;;15.40;99.90;;;;;;5060281;28;20297;-77
2023/01/31 12:48:34;;;;;;;5.07;1.90;;;15.40;99.90;;;;;;5061555;28;20066;-76
2023/01/31 12:51:14;;;;;;;9.48;1.65;;;15.40;99.90;;;;;;5071292;28;20059;-76
2023/01/31 12:54:05;;;;;;;6.28;1.70;;;15.10;99.90;;;;;;5020269;28;20069;-76
2023/01/31 12:56:40;;;;;;;5.78;1.95;;;15.10;99.90;;;;;;5086227;28;20074;-77
2023/01/31 12:59:37;;;;;;;5.57;1.88;;;15.40;99.90;;;;;;5092543;28;20028;-72
2023/01/31 13:02:07;;;;;;;6.75;2.13;;;15.40;99.90;;;;;;5091475;28;20119;-77
2023/01/31 13:04:55;;;;;;;8.07;2.00;;;15.60;99.90;;;;;;5092143;28;20058;-77
2023/01/31 13:07:35;;;;;;;5.80;2.20;;;15.80;99.90;;;;;;5087174;28;20107;-73
2023/01/31 13:10:06;;;;;;;9.75;1.88;;;16.00;99.90;;;;;;5082465;28;20016;-77
2023/01/31 13:12:34;;;;;;;6.15;1.60;;;16.30;99.90;;;;;;5082516;28;20368;-77
2023/01/31 13:15:13;;;;;;;6.22;1.60;;;16.20;99.90;;;;;;5089336;28;20027;-77
2023/01/31 13:17:40;;;;;;;10.45;3.20;;;16.40;99.90;;;;;;5092485;28;20020;-77
2023/01/31 13:20:28;;;;;;;11.60;2.70;;;16.00;99.90;;;;;;5093148;28;20016;-78
2023/01/31 13:23:11;;;;;;;8.90;2.67;;;16.20;99.90;;;;;;5093216;28;20486;-78
2023/01/31 13:25:46;;;;;;;9.15;2.60;;;15.90;99.90;;;;;;5093023;28;20028;-78
2023/01/31 13:28:18;;;;;;;8.25;2.83;;;15.80;99.90;;;;;;5092758;28;20028;-77
2023/01/31 13:30:56;;;;;;;9.45;2.30;;;15.80;99.90;;;;;;5092718;28;20020;-79
2023/01/31 13:33:23;;;;;;;11.07;2.13;;;15.70;99.90;;;;;;5096172;28;20111;-78
2023/01/31 13:36:33;;;;;;;8.57;2.10;;;15.60;99.90;;;;;;5096721;28;20099;-78
2023/01/31 13:39:07;;;;;;;6.95;1.98;;;15.50;99.90;;;;;;5097059;28;20048;-79
2023/01/31 13:41:34;;;;;;;11.65;1.85;;;15.50;99.90;;;;;;5096583;28;20028;-79
2023/01/31 13:44:01;;;;;;;9.23;1.90;;;15.40;99.90;;;;;;5077791;28;20027;-78
2023/01/31 13:46:41;;;;;;;6.68;1.63;;;15.30;99.90;;;;;;5096077;28;20024;-79
2023/01/31 13:49:20;;;;;;;6.25;1.73;;;15.10;99.90;;;;;;5096342;28;20027;-78
2023/01/31 13:51:53;;;;;;;10.00;1.80;;;14.90;99.90;;;;;;5096160;28;20356;-78
2023/01/31 13:54:29;;;;;;;5.90;1.70;;;14.80;99.90;;;;;;5092599;28;20024;-77
2023/01/31 13:57:16;;;;;;;7.57;2.70;;;14.70;99.90;;;;;;4993419;28;20030;-77
2023/01/31 13:59:53;;;;;;;8.15;2.10;;;14.60;99.90;;;;;;4993716;28;20034;-78
2023/01/31 14:02:19;;;;;;;8.38;2.20;;;14.40;99.90;;;;;;5060461;28;20060;-78
2023/01/31 14:04:46;;;;;;;12.73;2.40;;;14.40;99.90;;;;;;4992889;28;20179;-77
2023/01/31 14:07:15;;;;;;;13.65;2.30;;;14.30;99.90;;;;;;5060324;28;20099;-77
2023/01/31 14:09:51;;;;;;;8.20;2.33;;;14.20;99.90;;;;;;4993756;28;20026;-78
2023/01/31 14:12:17;;;;;;;7.78;1.92;;;14.10;99.90;;;;;;5060112;28;20030;-78
2023/01/31 14:14:53;;;;;;;15.57;2.50;;;14.00;99.90;;;;;;4993035;28;20044;-78
2023/01/31 14:17:28;;;;;;;10.00;2.47;;;13.90;99.90;;;;;;4997328;28;20026;-77
2023/01/31 14:19:54;;;;;;;10.38;2.20;;;13.90;99.90;;;;;;4996783;28;20035;-77
2023/01/31 14:22:35;;;;;;;13.27;2.50;;;13.80;99.90;;;;;;4997537;28;20515;-78
2023/01/31 14:25:10;;;;;;;8.68;2.42;;;13.80;99.90;;;;;;4992947;28;20046;-78
2023/01/31 14:27:43;;;;;;;10.50;2.13;;;13.70;99.90;;;;;;4993383;28;20046;-71
2023/01/31 14:30:25;;;;;;;12.50;3.03;;;13.60;99.90;;;;;;4990835;28;20129;-79
2023/01/31 14:33:11;;;;;;;10.52;1.90;;;13.60;99.90;;;;;;4992837;28;20115;-77
2023/01/31 14:36:18;;;;;;;10.07;2.15;;;13.80;99.90;;;;;;4993453;28;20022;-78
2023/01/31 14:39:15;;;;;;;13.20;2.10;;;14.00;99.90;;;;;;5060165;28;20095;-79